Time;durP1;ratioP1;P1;durP2;ratioP2;P2;SDS_P1;SDS_P2;PMS_P1;PMS_P2;Temp;Humidity;BMP_temperature;BMP_pressure;BME280_temperature;BME280_humidity;BME280_pressure;Samples;Min_cycle;Max_cycle;Signal;HPM_P1;HPM_P2
2023/06/13 00:02:24;;;;;;;2.55;2.10;;;;;;;;;;4960084;28;20051;-90
2023/06/13 00:04:52;;;;;;;1.92;1.83;;;;;;;;;;4976112;28;20055;-88
2023/06/13 00:07:19;;;;;;;1.95;1.85;;;;;;;;;;4960051;28;20106;-90
2023/06/13 00:09:47;;;;;;;1.70;1.60;;;;;;;;;;4958786;28;20354;-87
2023/06/13 00:12:14;;;;;;;2.83;2.10;;;;;;;;;;4951158;28;20047;-90
2023/06/13 00:14:43;;;;;;;2.15;2.00;;;;;;;;;;4960324;28;20059;-90
2023/06/13 00:17:11;;;;;;;1.83;1.73;;;;;;;;;;4961657;28;20059;-89
2023/06/13 00:19:39;;;;;;;2.05;1.95;;;;;;;;;;4959777;28;20473;-89
2023/06/13 00:22:09;;;;;;;3.28;2.10;;;;;;;;;;4958539;28;20055;-88
2023/06/13 00:24:37;;;;;;;1.88;1.77;;;;;;;;;;4955514;28;20102;-88
2023/06/13 00:27:04;;;;;;;2.13;1.70;;;;;;;;;;4956972;28;20542;-88
2023/06/13 00:29:32;;;;;;;1.98;1.88;;;;;;;;;;4955089;28;20051;-88
2023/06/13 00:31:59;;;;;;;4.00;1.60;;;;;;;;;;4957242;28;20047;-88
2023/06/13 00:34:27;;;;;;;1.95;1.83;;;;;;;;;;4954599;28;20414;-88
2023/06/13 00:36:55;;;;;;;1.92;1.65;;;;;;;;;;4971706;28;20055;-89
2023/06/13 00:39:23;;;;;;;2.00;1.90;;;;;;;;;;4967257;28;20105;-87
2023/06/13 00:41:50;;;;;;;1.70;1.60;;;;;;;;;;4962118;28;20505;-89
2023/06/13 00:44:18;;;;;;;2.03;1.80;;;;;;;;;;4964221;28;20043;-91
2023/06/13 00:46:46;;;;;;;2.10;1.90;;;;;;;;;;4975657;28;20062;-91
2023/06/13 00:49:15;;;;;;;2.10;2.00;;;;;;;;;;4981990;28;20042;-91
2023/06/13 00:51:44;;;;;;;2.25;2.05;;;;;;;;;;4980118;28;20054;-91
2023/06/13 00:54:13;;;;;;;1.80;1.70;;;;;;;;;;4987367;28;20043;-91
2023/06/13 00:56:43;;;;;;;2.10;2.00;;;;;;;;;;4987365;28;20045;-86
2023/06/13 00:59:12;;;;;;;2.22;2.03;;;;;;;;;;4983300;28;20043;-87
2023/06/13 01:01:42;;;;;;;2.25;2.15;;;;;;;;;;4960770;28;20051;-88
2023/06/13 01:04:13;;;;;;;2.33;1.90;;;;;;;;;;4961185;28;20687;-88
2023/06/13 01:06:44;;;;;;;2.50;2.30;;;;;;;;;;4966076;28;20051;-89
2023/06/13 01:09:14;;;;;;;2.20;2.10;;;;;;;;;;4965831;28;20043;-90
2023/06/13 01:11:51;;;;;;;1.90;1.80;;;;;;;;;;4962226;28;20051;-90
2023/06/13 01:14:34;;;;;;;2.17;2.08;;;;;;;;;;4961993;28;20094;-90
2023/06/13 01:17:04;;;;;;;2.10;2.00;;;;;;;;;;4973169;28;20501;-90
2023/06/13 01:19:37;;;;;;;2.00;1.90;;;;;;;;;;4980051;28;20051;-89
2023/06/13 01:22:07;;;;;;;2.17;2.08;;;;;;;;;;4966898;28;20043;-89
2023/06/13 01:24:56;;;;;;;2.38;2.17;;;;;;;;;;4965793;28;20044;-89
2023/06/13 01:27:25;;;;;;;2.47;2.30;;;;;;;;;;4957340;28;20046;-90
2023/06/13 01:29:59;;;;;;;2.50;1.98;;;;;;;;;;4962890;28;20115;-91
2023/06/13 01:32:27;;;;;;;2.05;1.95;;;;;;;;;;4955117;28;20067;-88
2023/06/13 01:34:55;;;;;;;2.40;2.30;;;;;;;;;;4965514;28;20051;-90
2023/06/13 01:37:22;;;;;;;2.45;2.33;;;;;;;;;;4967853;28;20051;-89
2023/06/13 01:39:50;;;;;;;2.25;2.15;;;;;;;;;;4963765;28;20477;-90
2023/06/13 01:42:17;;;;;;;2.13;2.00;;;;;;;;;;4960285;28;20646;-86
2023/06/13 01:44:45;;;;;;;2.13;2.03;;;;;;;;;;4961219;28;20031;-85
2023/06/13 01:47:15;;;;;;;3.47;2.13;;;;;;;;;;4957685;28;20039;-87
2023/06/13 01:49:49;;;;;;;2.10;2.00;;;;;;;;;;4962676;28;20059;-83
2023/06/13 01:52:19;;;;;;;2.35;2.20;;;;;;;;;;4959688;28;20054;-87
2023/06/13 01:54:52;;;;;;;2.10;1.90;;;;;;;;;;4975429;28;20058;-84
2023/06/13 01:57:23;;;;;;;2.00;1.90;;;;;;;;;;4970959;28;20044;-86
2023/06/13 01:59:55;;;;;;;2.33;2.08;;;;;;;;;;4961210;28;20047;-88
2023/06/13 02:02:23;;;;;;;2.58;2.03;;;;;;;;;;4953173;28;20110;-88
2023/06/13 02:04:50;;;;;;;2.20;2.00;;;;;;;;;;4958785;28;20228;-88
2023/06/13 02:07:18;;;;;;;2.20;2.00;;;;;;;;;;4959873;28;20047;-87
2023/06/13 02:09:48;;;;;;;2.22;2.08;;;;;;;;;;4958454;28;20139;-83
2023/06/13 02:12:17;;;;;;;2.40;2.30;;;;;;;;;;4949280;28;20503;-86
2023/06/13 02:14:44;;;;;;;3.00;2.10;;;;;;;;;;4960629;28;20113;-88
2023/06/13 02:17:12;;;;;;;2.30;2.05;;;;;;;;;;4960381;28;20046;-87
2023/06/13 02:19:43;;;;;;;2.17;2.08;;;;;;;;;;4956457;28;20117;-85
2023/06/13 02:22:10;;;;;;;3.05;2.22;;;;;;;;;;4955446;28;20180;-87
2023/06/13 02:24:37;;;;;;;2.47;2.28;;;;;;;;;;4958478;28;20047;-88
2023/06/13 02:27:06;;;;;;;2.60;2.40;;;;;;;;;;4955422;28;20039;-86
2023/06/13 02:29:35;;;;;;;2.70;2.50;;;;;;;;;;4959882;28;20047;-86
2023/06/13 02:32:02;;;;;;;2.22;2.05;;;;;;;;;;4961679;28;20047;-84
2023/06/13 02:34:30;;;;;;;2.10;2.00;;;;;;;;;;4979639;28;20243;-84
2023/06/13 02:36:58;;;;;;;2.03;1.92;;;;;;;;;;4973623;28;20307;-85
2023/06/13 02:39:25;;;;;;;1.92;1.83;;;;;;;;;;4961060;28;20114;-87
2023/06/13 02:41:53;;;;;;;2.50;2.40;;;;;;;;;;4955897;28;20065;-86
2023/06/13 02:44:20;;;;;;;2.25;2.10;;;;;;;;;;4947705;28;20098;-87
2023/06/13 02:46:47;;;;;;;2.20;2.10;;;;;;;;;;4955071;28;20051;-87
2023/06/13 02:49:15;;;;;;;2.55;2.45;;;;;;;;;;4955652;28;20067;-86
2023/06/13 02:51:42;;;;;;;2.45;2.20;;;;;;;;;;4959345;28;20106;-87
2023/06/13 02:54:09;;;;;;;2.25;2.15;;;;;;;;;;4964033;28;20043;-87
2023/06/13 02:56:38;;;;;;;2.35;2.15;;;;;;;;;;4955061;28;20496;-85
2023/06/13 02:59:05;;;;;;;3.97;2.03;;;;;;;;;;4959680;28;20062;-86
2023/06/13 03:01:33;;;;;;;2.35;2.25;;;;;;;;;;4952523;28;20122;-88
2023/06/13 03:04:06;;;;;;;2.28;2.00;;;;;;;;;;4937710;28;20052;-89
2023/06/13 03:06:36;;;;;;;1.90;1.80;;;;;;;;;;4964385;28;20090;-89
2023/06/13 03:09:04;;;;;;;2.40;2.20;;;;;;;;;;4957770;28;20106;-89
2023/06/13 03:11:33;;;;;;;2.15;2.05;;;;;;;;;;4958518;28;20043;-86
2023/06/13 03:14:00;;;;;;;2.20;2.00;;;;;;;;;;4957803;28;20438;-86
2023/06/13 03:16:28;;;;;;;1.92;1.83;;;;;;;;;;4958056;28;20106;-86
2023/06/13 03:18:58;;;;;;;1.88;1.77;;;;;;;;;;4971336;28;20134;-84
2023/06/13 03:21:25;;;;;;;2.88;1.90;;;;;;;;;;4958315;28;20067;-87
2023/06/13 03:23:53;;;;;;;3.38;2.22;;;;;;;;;;4956272;28;20055;-87
2023/06/13 03:26:22;;;;;;;3.28;2.28;;;;;;;;;;4974139;28;20055;-88
2023/06/13 03:28:51;;;;;;;2.35;2.15;;;;;;;;;;4943353;29;20118;-86
2023/06/13 03:31:19;;;;;;;2.10;2.00;;;;;;;;;;4963425;28;20047;-90
2023/06/13 03:33:47;;;;;;;1.80;1.70;;;;;;;;;;4955359;28;20811;-89
2023/06/13 03:36:14;;;;;;;1.80;1.70;;;;;;;;;;4974985;28;20147;-89
2023/06/13 03:38:42;;;;;;;2.80;1.90;;;;;;;;;;4970414;28;20046;-92
2023/06/13 03:41:09;;;;;;;2.78;2.05;;;;;;;;;;4975503;28;20031;-90
2023/06/13 03:43:37;;;;;;;2.17;1.98;;;;;;;;;;4981443;28;20066;-91
2023/06/13 03:46:04;;;;;;;2.60;1.95;;;;;;;;;;4990367;28;20023;-87
2023/06/13 03:48:32;;;;;;;2.17;2.08;;;;;;;;;;4984290;28;20074;-91
2023/06/13 03:51:00;;;;;;;2.22;2.03;;;;;;;;;;4978830;28;20187;-93
2023/06/13 03:53:27;;;;;;;2.78;1.70;;;;;;;;;;4985105;28;20043;-90
2023/06/13 03:55:55;;;;;;;1.90;1.80;;;;;;;;;;4976563;28;20046;-89
2023/06/13 03:58:25;;;;;;;2.42;2.00;;;;;;;;;;4975042;28;20841;-89
2023/06/13 04:00:54;;;;;;;3.03;1.92;;;;;;;;;;4969817;28;20119;-89
2023/06/13 04:03:22;;;;;;;2.10;2.00;;;;;;;;;;4967734;28;20053;-92
2023/06/13 04:05:49;;;;;;;3.88;1.95;;;;;;;;;;4959488;28;20517;-87
2023/06/13 04:08:19;;;;;;;2.92;2.03;;;;;;;;;;4959909;28;20498;-89
2023/06/13 04:10:46;;;;;;;3.53;2.00;;;;;;;;;;4955537;28;20454;-89
2023/06/13 04:13:14;;;;;;;2.47;2.28;;;;;;;;;;4957107;28;20043;-88
2023/06/13 04:15:42;;;;;;;2.15;2.00;;;;;;;;;;4967418;28;20051;-89
2023/06/13 04:18:09;;;;;;;2.00;1.90;;;;;;;;;;4990292;28;20035;-88
2023/06/13 04:20:38;;;;;;;4.07;1.85;;;;;;;;;;4997273;28;20061;-87
2023/06/13 04:23:06;;;;;;;2.25;2.03;;;;;;;;;;4968155;28;20509;-88
2023/06/13 04:25:33;;;;;;;1.90;1.80;;;;;;;;;;4965178;28;20055;-88
2023/06/13 04:28:02;;;;;;;2.35;2.00;;;;;;;;;;4959271;28;20083;-89
2023/06/13 04:30:30;;;;;;;2.53;2.25;;;;;;;;;;4978771;28;20058;-89
2023/06/13 04:32:58;;;;;;;2.58;1.63;;;;;;;;;;4960571;28;20074;-88
2023/06/13 04:35:26;;;;;;;3.10;2.17;;;;;;;;;;4975196;28;20046;-89
2023/06/13 04:37:57;;;;;;;2.08;1.83;;;;;;;;;;4961065;28;20062;-90
2023/06/13 04:40:31;;;;;;;2.40;2.20;;;;;;;;;;4959999;28;20058;-89
2023/06/13 04:43:03;;;;;;;2.25;2.05;;;;;;;;;;4965719;28;20094;-88
2023/06/13 04:45:32;;;;;;;2.97;2.00;;;;;;;;;;4959228;28;20055;-88
2023/06/13 04:48:03;;;;;;;2.85;2.17;;;;;;;;;;4954648;28;20049;-87
2023/06/13 04:50:31;;;;;;;2.03;1.90;;;;;;;;;;4957515;28;20063;-86
2023/06/13 04:53:07;;;;;;;2.53;2.40;;;;;;;;;;4951680;28;20047;-85
2023/06/13 04:55:37;;;;;;;2.00;1.90;;;;;;;;;;4956647;28;20051;-85
2023/06/13 04:58:05;;;;;;;2.00;1.90;;;;;;;;;;4968907;28;20054;-85
2023/06/13 05:00:32;;;;;;;2.20;2.00;;;;;;;;;;4958859;28;20090;-88
2023/06/13 05:03:02;;;;;;;2.20;2.10;;;;;;;;;;4955600;28;20362;-88
2023/06/13 05:05:30;;;;;;;2.28;2.17;;;;;;;;;;4955187;28;20066;-90
2023/06/13 05:07:59;;;;;;;2.67;2.03;;;;;;;;;;4959060;28;20458;-88
2023/06/13 05:10:27;;;;;;;2.30;2.20;;;;;;;;;;4957950;28;20054;-88
2023/06/13 05:12:55;;;;;;;2.40;2.20;;;;;;;;;;4959421;28;20051;-89
2023/06/13 05:15:23;;;;;;;3.40;2.33;;;;;;;;;;4959619;28;20062;-88
2023/06/13 05:17:54;;;;;;;3.10;2.25;;;;;;;;;;4957648;28;20050;-90
2023/06/13 05:20:26;;;;;;;2.45;2.28;;;;;;;;;;4956990;28;20502;-90
2023/06/13 05:22:54;;;;;;;3.80;2.50;;;;;;;;;;4958806;28;20078;-89
2023/06/13 05:25:21;;;;;;;2.00;1.90;;;;;;;;;;4958577;28;20027;-89
2023/06/13 05:27:54;;;;;;;2.42;2.10;;;;;;;;;;4959201;28;20047;-89
2023/06/13 05:30:21;;;;;;;2.42;2.22;;;;;;;;;;4975564;28;20074;-89
2023/06/13 05:32:49;;;;;;;4.80;3.65;;;;;;;;;;4964438;28;20102;-88
2023/06/13 05:35:17;;;;;;;2.63;2.53;;;;;;;;;;4959232;28;20061;-90
2023/06/13 05:37:46;;;;;;;2.30;2.20;;;;;;;;;;4959044;28;20154;-88
2023/06/13 05:40:13;;;;;;;1.80;1.70;;;;;;;;;;4954407;28;20500;-87
2023/06/13 05:42:41;;;;;;;2.17;2.08;;;;;;;;;;4958849;28;20059;-87
2023/06/13 05:45:09;;;;;;;1.90;1.80;;;;;;;;;;4960172;28;20043;-87
2023/06/13 05:47:37;;;;;;;3.55;1.90;;;;;;;;;;4953305;28;20123;-87
2023/06/13 05:50:05;;;;;;;2.10;1.95;;;;;;;;;;4952717;28;20051;-87
2023/06/13 05:52:33;;;;;;;2.00;1.90;;;;;;;;;;4948254;28;20071;-88
2023/06/13 05:55:01;;;;;;;1.60;1.50;;;;;;;;;;4955555;28;20043;-86
2023/06/13 05:57:42;;;;;;;1.73;1.63;;;;;;;;;;4952752;28;20047;-89
2023/06/13 06:00:12;;;;;;;1.30;1.30;;;;;;;;;;4988352;28;20031;-90
2023/06/13 06:02:41;;;;;;;;;;;;;;;;;;4979023;28;20044;-88
2023/06/13 06:05:09;;;;;;;1.48;1.40;;;;;;;;;;4968095;28;20367;-88
2023/06/13 06:07:36;;;;;;;1.67;1.58;;;;;;;;;;4957164;28;20040;-87
2023/06/13 06:10:05;;;;;;;1.42;1.40;;;;;;;;;;4955406;28;20087;-86
2023/06/13 06:12:32;;;;;;;1.58;1.48;;;;;;;;;;4952550;28;20043;-87
2023/06/13 06:15:00;;;;;;;1.67;1.33;;;;;;;;;;4950855;28;20039;-87
2023/06/13 06:17:28;;;;;;;1.70;1.58;;;;;;;;;;4951809;28;20113;-87
2023/06/13 06:19:55;;;;;;;1.98;1.80;;;;;;;;;;4954625;28;20047;-86
2023/06/13 06:22:23;;;;;;;1.88;1.77;;;;;;;;;;4956646;28;20051;-86
2023/06/13 06:24:50;;;;;;;1.63;1.52;;;;;;;;;;4962205;28;20102;-84
2023/06/13 06:27:18;;;;;;;2.65;1.70;;;;;;;;;;4954564;28;20043;-84
2023/06/13 06:29:45;;;;;;;2.05;1.60;;;;;;;;;;4955903;28;20067;-84
2023/06/13 06:32:12;;;;;;;1.60;1.50;;;;;;;;;;4952083;28;20055;-84
2023/06/13 06:34:40;;;;;;;4.03;1.55;;;;;;;;;;4984243;28;20099;-86
2023/06/13 06:37:08;;;;;;;2.28;1.58;;;;;;;;;;4988199;28;20079;-87
2023/06/13 06:39:39;;;;;;;2.97;1.48;;;;;;;;;;5000721;28;20050;-86
2023/06/13 06:42:06;;;;;;;4.72;1.50;;;;;;;;;;4977760;28;20043;-86
2023/06/13 06:44:57;;;;;;;1.77;1.50;;;;;;;;;;4981706;28;20043;-84
2023/06/13 06:47:24;;;;;;;1.70;1.60;;;;;;;;;;4972656;28;20051;-87
2023/06/13 06:49:52;;;;;;;2.58;1.60;;;;;;;;;;4963639;28;20071;-85
2023/06/13 06:52:20;;;;;;;4.05;1.33;;;;;;;;;;4971143;28;20075;-82
2023/06/13 06:54:47;;;;;;;1.67;1.48;;;;;;;;;;4967420;28;20047;-86
2023/06/13 06:57:15;;;;;;;1.30;1.20;;;;;;;;;;4978679;28;20031;-84
2023/06/13 06:59:42;;;;;;;1.40;1.30;;;;;;;;;;4975527;28;20050;-82
2023/06/13 07:02:09;;;;;;;1.30;1.20;;;;;;;;;;4975564;28;20131;-83
2023/06/13 07:04:37;;;;;;;3.35;1.50;;;;;;;;;;4968560;28;20202;-83
2023/06/13 07:07:04;;;;;;;1.60;1.50;;;;;;;;;;4969221;28;20050;-83
2023/06/13 07:09:32;;;;;;;2.15;1.50;;;;;;;;;;4963918;28;20074;-85
2023/06/13 07:11:59;;;;;;;1.88;1.30;;;;;;;;;;4950884;28;20053;-85
2023/06/13 07:14:27;;;;;;;1.48;1.35;;;;;;;;;;4969146;28;20106;-88
2023/06/13 07:16:54;;;;;;;1.48;1.45;;;;;;;;;;4959837;28;20046;-86
2023/06/13 07:19:23;;;;;;;1.15;1.10;;;;;;;;;;4957439;28;20047;-85
2023/06/13 07:21:50;;;;;;;1.10;1.10;;;;;;;;;;4958434;28;20075;-84
2023/06/13 07:24:18;;;;;;;5.72;1.40;;;;;;;;;;4963674;28;20070;-89
2023/06/13 07:26:57;;;;;;;1.40;1.30;;;;;;;;;;4955497;28;20486;-89
2023/06/13 07:29:31;;;;;;;3.65;1.30;;;;;;;;;;4959481;28;20421;-86
2023/06/13 07:31:59;;;;;;;1.20;1.20;;;;;;;;;;4949660;28;20070;-86
2023/06/13 07:34:26;;;;;;;3.03;1.20;;;;;;;;;;4956198;28;20054;-87
2023/06/13 07:37:13;;;;;;;1.23;1.13;;;;;;;;;;4949424;28;20047;-86
2023/06/13 07:39:41;;;;;;;2.83;1.60;;;;;;;;;;4952966;28;20051;-89
2023/06/13 07:42:08;;;;;;;1.55;1.25;;;;;;;;;;4950759;28;20098;-87
2023/06/13 07:44:36;;;;;;;1.48;1.38;;;;;;;;;;4952888;28;20047;-86
2023/06/13 07:47:03;;;;;;;1.63;1.30;;;;;;;;;;4954017;28;20461;-89
2023/06/13 07:49:31;;;;;;;4.50;1.90;;;;;;;;;;4953780;28;20059;-88
2023/06/13 07:51:59;;;;;;;1.70;1.60;;;;;;;;;;4960741;28;20078;-85
2023/06/13 07:54:26;;;;;;;1.52;1.42;;;;;;;;;;4955442;28;20055;-85
2023/06/13 07:56:54;;;;;;;2.85;1.40;;;;;;;;;;4955204;28;20066;-85
2023/06/13 07:59:22;;;;;;;1.55;1.25;;;;;;;;;;4952367;28;20046;-86
2023/06/13 08:01:49;;;;;;;2.00;1.30;;;;;;;;;;4962505;28;20518;-89
2023/06/13 08:04:17;;;;;;;4.38;1.48;;;;;;;;;;4953316;28;20047;-88
2023/06/13 08:06:45;;;;;;;1.83;1.58;;;;;;;;;;4966204;28;20122;-86
2023/06/13 08:09:12;;;;;;;1.30;1.30;;;;;;;;;;4962921;28;20046;-88
2023/06/13 08:11:40;;;;;;;2.40;1.48;;;;;;;;;;4959880;28;20070;-87
2023/06/13 08:14:08;;;;;;;2.15;1.50;;;;;;;;;;4962680;28;20041;-87
2023/06/13 08:16:37;;;;;;;1.20;1.20;;;;;;;;;;4951636;28;20047;-87
2023/06/13 08:19:04;;;;;;;1.17;1.17;;;;;;;;;;4951874;28;20086;-86
2023/06/13 08:21:32;;;;;;;1.48;1.38;;;;;;;;;;4965128;28;20066;-87
2023/06/13 08:23:59;;;;;;;1.40;1.40;;;;;;;;;;4954767;28;20047;-84
2023/06/13 08:26:32;;;;;;;3.67;2.10;;;;;;;;;;4953306;28;20082;-85
2023/06/13 08:29:03;;;;;;;1.58;1.48;;;;;;;;;;4967413;28;20043;-86
2023/06/13 08:31:31;;;;;;;1.37;1.30;;;;;;;;;;4956843;28;20040;-87
2023/06/13 08:34:03;;;;;;;1.65;1.30;;;;;;;;;;4953529;28;20791;-86
2023/06/13 08:36:38;;;;;;;1.70;1.60;;;;;;;;;;4962668;28;20131;-85
2023/06/13 08:39:06;;;;;;;1.52;1.42;;;;;;;;;;4960685;28;20398;-84
2023/06/13 08:41:34;;;;;;;3.30;1.25;;;;;;;;;;4957045;28;20047;-86
2023/06/13 08:44:01;;;;;;;1.20;1.20;;;;;;;;;;4957023;28;20051;-86
2023/06/13 08:46:29;;;;;;;1.30;1.20;;;;;;;;;;4961876;28;20047;-85
2023/06/13 08:48:56;;;;;;;1.75;1.20;;;;;;;;;;4952840;28;20047;-86
2023/06/13 08:51:24;;;;;;;1.00;1.00;;;;;;;;;;4952466;28;20075;-84
2023/06/13 08:53:53;;;;;;;1.50;1.40;;;;;;;;;;4956990;28;20043;-87
2023/06/13 08:56:22;;;;;;;1.30;1.20;;;;;;;;;;4958686;28;20130;-86
2023/06/13 08:59:03;;;;;;;1.33;1.20;;;;;;;;;;4954556;28;20113;-88
2023/06/13 09:01:31;;;;;;;1.10;1.10;;;;;;;;;;4963653;28;20045;-84
2023/06/13 09:03:58;;;;;;;1.40;1.30;;;;;;;;;;4963077;28;20078;-85
2023/06/13 09:06:27;;;;;;;1.30;1.20;;;;;;;;;;4962126;28;20055;-85
2023/06/13 09:08:56;;;;;;;1.55;1.40;;;;;;;;;;4963552;28;20047;-87
2023/06/13 09:11:24;;;;;;;1.73;1.55;;;;;;;;;;4961151;28;20636;-86
2023/06/13 09:13:52;;;;;;;1.33;1.23;;;;;;;;;;4951067;28;20045;-84
2023/06/13 09:16:20;;;;;;;1.23;1.13;;;;;;;;;;4958210;28;20054;-87
2023/06/13 09:18:50;;;;;;;2.03;1.35;;;;;;;;;;4967098;28;20537;-88
2023/06/13 09:21:20;;;;;;;1.00;1.00;;;;;;;;;;4960326;28;20595;-86
2023/06/13 09:23:49;;;;;;;;;;;;;;;;;;4958901;28;20577;-86
2023/06/13 09:26:17;;;;;;;1.40;1.30;;;;;;;;;;4963533;28;20387;-88
2023/06/13 09:28:47;;;;;;;1.10;1.10;;;;;;;;;;4966532;28;20047;-87
2023/06/13 09:31:15;;;;;;;1.75;1.17;;;;;;;;;;4964626;28;20074;-88
2023/06/13 09:33:44;;;;;;;0.95;0.95;;;;;;;;;;4957910;28;20053;-87
2023/06/13 09:36:11;;;;;;;1.48;1.38;;;;;;;;;;4961575;28;20042;-86
2023/06/13 09:38:40;;;;;;;2.17;1.30;;;;;;;;;;4963168;28;20505;-88
2023/06/13 09:41:09;;;;;;;3.75;1.60;;;;;;;;;;4963668;28;20078;-84
2023/06/13 09:43:40;;;;;;;1.45;1.20;;;;;;;;;;4967977;28;20089;-86
2023/06/13 09:46:10;;;;;;;1.33;1.20;;;;;;;;;;4956687;28;20143;-85
2023/06/13 09:48:38;;;;;;;3.17;2.27;;;;;;;;;;4959489;28;20051;-88
2023/06/13 09:51:11;;;;;;;1.08;1.08;;;;;;;;;;4953889;28;20302;-88
2023/06/13 09:53:39;;;;;;;1.40;1.20;;;;;;;;;;4955386;28;20046;-87
2023/06/13 09:56:10;;;;;;;1.70;1.60;;;;;;;;;;4968438;28;20042;-85
2023/06/13 09:58:38;;;;;;;1.50;1.40;;;;;;;;;;4961644;28;20441;-85
2023/06/13 10:01:11;;;;;;;1.20;1.20;;;;;;;;;;4953824;28;20142;-86
2023/06/13 10:03:40;;;;;;;1.10;1.10;;;;;;;;;;4953572;28;20453;-85
2023/06/13 10:06:08;;;;;;;1.10;1.10;;;;;;;;;;4953750;28;20047;-86
2023/06/13 10:08:35;;;;;;;1.10;1.10;;;;;;;;;;4963459;28;20054;-86
2023/06/13 10:11:13;;;;;;;4.70;1.30;;;;;;;;;;4961653;28;20122;-86
2023/06/13 10:13:45;;;;;;;2.80;1.60;;;;;;;;;;4955184;28;20055;-87
2023/06/13 10:16:13;;;;;;;1.60;1.50;;;;;;;;;;4953530;28;20505;-87
2023/06/13 10:18:45;;;;;;;1.73;1.08;;;;;;;;;;4961692;28;20050;-88
2023/06/13 10:21:13;;;;;;;1.40;1.30;;;;;;;;;;4955162;28;20047;-87
2023/06/13 10:23:44;;;;;;;1.85;1.50;;;;;;;;;;4956577;28;20051;-86
2023/06/13 10:26:15;;;;;;;1.55;1.45;;;;;;;;;;4956390;28;20047;-85
2023/06/13 10:28:51;;;;;;;1.47;1.37;;;;;;;;;;4957266;28;20048;-87
2023/06/13 10:31:36;;;;;;;1.45;1.30;;;;;;;;;;4960042;28;20301;-88
2023/06/13 10:34:16;;;;;;;1.45;1.35;;;;;;;;;;4964241;28;20477;-84
2023/06/13 10:37:03;;;;;;;1.20;1.10;;;;;;;;;;4959527;28;20105;-84
2023/06/13 10:39:35;;;;;;;;;;;;;;;;;;4977029;28;20060;-85
2023/06/13 10:42:08;;;;;;;1.50;1.40;;;;;;;;;;4973683;28;19910;-85
2023/06/13 10:44:38;;;;;;;1.23;1.13;;;;;;;;;;4973200;28;20043;-86
2023/06/13 10:47:07;;;;;;;1.10;1.10;;;;;;;;;;4971126;28;20051;-85
2023/06/13 10:49:42;;;;;;;1.20;1.20;;;;;;;;;;4972273;28;20055;-88
2023/06/13 10:52:12;;;;;;;1.58;1.48;;;;;;;;;;4975274;28;20057;-85
2023/06/13 10:54:40;;;;;;;1.85;1.40;;;;;;;;;;4961221;28;20090;-85
2023/06/13 10:57:08;;;;;;;1.00;1.00;;;;;;;;;;4966318;28;20043;-85
2023/06/13 10:59:37;;;;;;;1.65;1.17;;;;;;;;;;4963265;28;20076;-86
2023/06/13 11:02:05;;;;;;;1.45;1.35;;;;;;;;;;4952976;28;20055;-85
2023/06/13 11:04:32;;;;;;;2.80;2.70;;;;;;;;;;4953631;28;20085;-87
2023/06/13 11:07:19;;;;;;;2.35;1.40;;;;;;;;;;4951733;28;20059;-87
2023/06/13 11:10:00;;;;;;;2.63;1.30;;;;;;;;;;4954140;28;20047;-86
2023/06/13 11:12:28;;;;;;;1.30;1.20;;;;;;;;;;4951537;28;20047;-87
2023/06/13 11:15:00;;;;;;;1.30;1.20;;;;;;;;;;4950739;28;20051;-85
2023/06/13 11:17:28;;;;;;;1.30;1.30;;;;;;;;;;4953635;28;20054;-87
2023/06/13 11:19:56;;;;;;;1.05;1.05;;;;;;;;;;4953332;28;20071;-88
2023/06/13 11:22:24;;;;;;;2.15;1.10;;;;;;;;;;4949326;28;20054;-87
2023/06/13 11:24:53;;;;;;;1.20;1.20;;;;;;;;;;4952651;28;20043;-87
2023/06/13 11:27:21;;;;;;;1.42;1.40;;;;;;;;;;4952675;28;20046;-87
2023/06/13 11:29:48;;;;;;;1.20;1.10;;;;;;;;;;4953754;28;20496;-87
2023/06/13 11:32:16;;;;;;;1.20;1.10;;;;;;;;;;4953486;28;20055;-87
2023/06/13 11:34:51;;;;;;;0.98;0.93;;;;;;;;;;4953199;28;20129;-88
2023/06/13 11:37:31;;;;;;;1.20;1.13;;;;;;;;;;4952032;28;20614;-87
2023/06/13 11:40:00;;;;;;;1.38;1.27;;;;;;;;;;4954981;28;20047;-89
2023/06/13 11:42:47;;;;;;;1.17;1.17;;;;;;;;;;4948456;28;20448;-87
2023/06/13 11:45:15;;;;;;;1.20;1.20;;;;;;;;;;4948510;28;20418;-86
2023/06/13 11:47:44;;;;;;;1.10;1.00;;;;;;;;;;4953005;28;20047;-86
2023/06/13 11:50:12;;;;;;;1.25;1.10;;;;;;;;;;4950814;28;20736;-87
2023/06/13 11:52:39;;;;;;;2.25;0.98;;;;;;;;;;4953295;28;20127;-87
2023/06/13 11:55:17;;;;;;;1.08;1.00;;;;;;;;;;4959272;28;20055;-86
2023/06/13 11:57:46;;;;;;;2.38;1.10;;;;;;;;;;4950798;28;20523;-87
2023/06/13 12:00:14;;;;;;;1.20;1.10;;;;;;;;;;4951833;28;20069;-87
2023/06/13 12:02:43;;;;;;;1.17;1.13;;;;;;;;;;4951791;28;20083;-86
2023/06/13 12:05:11;;;;;;;1.40;1.30;;;;;;;;;;4952776;28;20051;-87
2023/06/13 12:07:39;;;;;;;1.10;1.00;;;;;;;;;;4953384;28;20114;-87
2023/06/13 12:10:07;;;;;;;1.52;1.20;;;;;;;;;;4949754;28;20070;-88
2023/06/13 12:12:34;;;;;;;1.88;1.02;;;;;;;;;;4952768;28;20044;-87
2023/06/13 12:15:07;;;;;;;1.30;0.90;;;;;;;;;;4951668;28;20176;-88
2023/06/13 12:17:35;;;;;;;1.77;1.10;;;;;;;;;;4951656;28;20057;-87
2023/06/13 12:20:08;;;;;;;0.90;0.90;;;;;;;;;;4952088;28;20051;-88
2023/06/13 12:22:36;;;;;;;2.70;1.30;;;;;;;;;;4955125;28;20071;-87
2023/06/13 12:25:03;;;;;;;0.93;0.93;;;;;;;;;;4953576;28;20484;-87
2023/06/13 12:27:31;;;;;;;0.95;0.90;;;;;;;;;;4956080;28;20053;-87
2023/06/13 12:30:08;;;;;;;1.38;1.38;;;;;;;;;;4959070;28;20039;-87
2023/06/13 12:32:37;;;;;;;1.02;1.00;;;;;;;;;;4955920;28;20256;-85
2023/06/13 12:35:05;;;;;;;1.20;1.10;;;;;;;;;;4956017;28;20055;-86
2023/06/13 12:37:37;;;;;;;1.00;1.00;;;;;;;;;;4954549;28;20051;-87
2023/06/13 12:40:12;;;;;;;0.82;0.82;;;;;;;;;;4954337;28;21280;-85
2023/06/13 12:42:42;;;;;;;0.90;0.90;;;;;;;;;;4952354;28;20584;-85
2023/06/13 12:45:10;;;;;;;1.13;0.85;;;;;;;;;;4955460;28;20062;-86
2023/06/13 12:47:38;;;;;;;0.90;0.90;;;;;;;;;;4954913;28;20047;-86
2023/06/13 12:50:11;;;;;;;0.93;0.93;;;;;;;;;;4950662;28;20054;-88
2023/06/13 12:52:39;;;;;;;2.08;0.98;;;;;;;;;;4952939;28;20046;-85
2023/06/13 12:55:07;;;;;;;0.95;0.95;;;;;;;;;;4952757;28;20051;-88
2023/06/13 12:57:35;;;;;;;0.82;0.82;;;;;;;;;;4955348;28;20863;-86
2023/06/13 13:00:06;;;;;;;1.88;1.10;;;;;;;;;;4955415;28;20506;-87
2023/06/13 13:02:34;;;;;;;0.82;0.82;;;;;;;;;;4951905;28;20517;-88
2023/06/13 13:05:02;;;;;;;1.10;1.10;;;;;;;;;;4950067;28;20434;-87
2023/06/13 13:07:31;;;;;;;0.80;0.80;;;;;;;;;;4949994;28;20039;-86
2023/06/13 13:09:59;;;;;;;1.13;1.02;;;;;;;;;;4955978;28;20051;-87
2023/06/13 13:12:27;;;;;;;1.00;1.00;;;;;;;;;;4953797;28;20463;-87
2023/06/13 13:14:54;;;;;;;1.60;1.08;;;;;;;;;;4958211;28;20050;-87
2023/06/13 13:17:22;;;;;;;1.02;1.02;;;;;;;;;;4955795;28;20057;-88
2023/06/13 13:19:53;;;;;;;1.95;1.10;;;;;;;;;;4956600;28;20081;-86
2023/06/13 13:22:21;;;;;;;0.93;0.93;;;;;;;;;;4955512;28;20082;-88
2023/06/13 13:24:48;;;;;;;1.10;1.10;;;;;;;;;;4957255;28;20078;-88
2023/06/13 13:27:16;;;;;;;0.82;0.82;;;;;;;;;;4965497;28;20043;-87
2023/06/13 13:29:43;;;;;;;1.20;1.05;;;;;;;;;;4964153;28;20129;-88
2023/06/13 13:32:11;;;;;;;0.88;0.88;;;;;;;;;;4956351;28;20047;-89
2023/06/13 13:34:38;;;;;;;0.93;0.80;;;;;;;;;;4958756;28;20046;-87
2023/06/13 13:37:06;;;;;;;1.10;0.80;;;;;;;;;;4958234;28;20057;-86
2023/06/13 13:39:33;;;;;;;0.90;0.90;;;;;;;;;;4950634;28;20050;-87
2023/06/13 13:42:01;;;;;;;1.60;1.30;;;;;;;;;;4955162;28;20078;-88
2023/06/13 13:44:40;;;;;;;1.00;1.00;;;;;;;;;;4961680;28;20063;-87
2023/06/13 13:47:07;;;;;;;1.10;1.00;;;;;;;;;;4958220;28;20039;-87
2023/06/13 13:49:36;;;;;;;0.95;0.95;;;;;;;;;;4951003;28;20055;-87
2023/06/13 13:52:03;;;;;;;1.08;1.08;;;;;;;;;;4960123;28;20058;-89
2023/06/13 13:54:31;;;;;;;1.00;1.00;;;;;;;;;;4962737;28;20059;-86
2023/06/13 13:56:59;;;;;;;0.90;0.90;;;;;;;;;;4956230;28;20058;-86
2023/06/13 13:59:28;;;;;;;1.27;1.02;;;;;;;;;;4955245;28;20468;-88
2023/06/13 14:01:55;;;;;;;0.90;0.90;;;;;;;;;;4936629;29;20031;-85
2023/06/13 14:04:23;;;;;;;1.48;1.35;;;;;;;;;;4959913;28;20043;-89
2023/06/13 14:06:51;;;;;;;1.20;1.10;;;;;;;;;;4958196;28;20106;-88
2023/06/13 14:09:21;;;;;;;0.80;0.80;;;;;;;;;;4957470;28;20624;-86
2023/06/13 14:11:48;;;;;;;1.08;1.08;;;;;;;;;;4959219;28;20062;-85
2023/06/13 14:14:15;;;;;;;0.90;0.90;;;;;;;;;;4959287;28;20045;-86
2023/06/13 14:16:42;;;;;;;0.77;0.77;;;;;;;;;;4958646;28;20069;-83
2023/06/13 14:19:10;;;;;;;1.20;1.00;;;;;;;;;;4954402;28;20185;-85
2023/06/13 14:21:38;;;;;;;0.90;0.90;;;;;;;;;;4954351;28;20308;-87
2023/06/13 14:24:05;;;;;;;1.10;1.10;;;;;;;;;;4960353;28;20107;-91
2023/06/13 14:26:33;;;;;;;0.70;0.70;;;;;;;;;;4973876;28;20067;-88
2023/06/13 14:29:00;;;;;;;1.27;0.70;;;;;;;;;;4966703;28;20043;-87
2023/06/13 14:31:28;;;;;;;0.80;0.80;;;;;;;;;;4968768;28;20043;-86
2023/06/13 14:33:56;;;;;;;0.85;0.85;;;;;;;;;;4968912;28;20051;-86
2023/06/13 14:36:24;;;;;;;0.88;0.88;;;;;;;;;;4972025;28;20047;-81
2023/06/13 14:39:05;;;;;;;1.10;1.00;;;;;;;;;;4970506;28;20027;-83
2023/06/13 14:41:32;;;;;;;1.10;1.10;;;;;;;;;;4968139;28;20043;-84
2023/06/13 14:44:01;;;;;;;1.20;1.20;;;;;;;;;;4954170;28;20610;-83
2023/06/13 14:46:29;;;;;;;0.90;0.90;;;;;;;;;;4952770;28;20525;-86
2023/06/13 14:48:57;;;;;;;0.90;0.90;;;;;;;;;;4952156;28;20047;-88
2023/06/13 14:51:25;;;;;;;1.30;1.20;;;;;;;;;;4952955;28;20070;-85
2023/06/13 14:53:52;;;;;;;0.90;0.90;;;;;;;;;;4957915;28;20646;-88
2023/06/13 14:56:19;;;;;;;0.90;0.90;;;;;;;;;;4956869;28;20622;-86